Fergus Falls, MN

1:55 PM CDT on June 22, 2017 (GMT -0500)
Fergus Falls Municipal-Mickelson

Weather History for KFFM - April, 2013

Change the Weather History Date:

Saturday, April 13, 2013

  Actual Average Record
Temperature  
Mean Temperature 30 °F -  
Max Temperature 33 °F 49 °F 89 °F (2003)
Min Temperature 26 °F 30 °F 11 °F (1992)
Degree Days  
Heating Degree Days 36    
Moisture  
Dew Point 24 °F    
Average Humidity 82    
Maximum Humidity 100    
Minimum Humidity 52    
Precipitation  
Precipitation 0.00 in - - ()
Sea Level Pressure  
Sea Level Pressure 29.87 in    
Wind  
Wind Speed 9 mph (NNW)    
Max Wind Speed 14 mph    
Max Gust Speed -    
Visibility 9 miles    
Events Snow    
Averages and records for this station are not official NWS values.
T = Trace of Precipitation, MM = Missing Value Source: NWS Daily Summary

Daily Weather History Graph

Daily Weather History Graph

Search for Another Location

Airport or City:

Trip Planner

Search our weather history database for the weather conditions in past years. The results will help you decide how hot, cold, wet, or windy it might be!

Date:

Astronomy

Apr. 13, 2013 Rise Set
Actual Time 6:41 AM CDT 8:09 PM CDT
Civil Twilight 6:09 AM CDT 8:41 PM CDT
Nautical Twilight 5:31 AM CDT 9:19 PM CDT
Astronomical Twilight 4:51 AM CDT 10:00 PM CDT
Moon 8:24 AM CDT (4/13) 11:44 PM CDT (4/13)
Length of Visible Light 14h 31m
Length of Day
13h 28m
Waxing Crescent, 10% of the Moon is Illuminated
Apr 13
Waxing Crescent
Apr 18
First Quarter
Apr 25
Full
May 2
Last Quarter
May 9
New

Hourly Weather History & Observations

Time (CDT) Temp. Windchill Dew Point Humidity Pressure Visibility Wind Dir Wind Speed Gust Speed Precip Events Conditions
12:13 AM 28.4 °F 18.0 °F 26.6 °F 93% 29.87 in 3.0 mi NW 12.7 mph - N/A Snow Light Snow
12:33 AM 28.4 °F 17.5 °F 26.6 °F 93% 29.87 in 5.0 mi NW 13.8 mph - N/A Snow Light Snow
12:52 AM 28.4 °F 17.5 °F 26.6 °F 93% 29.87 in 4.0 mi NW 13.8 mph - N/A   Overcast
1:13 AM 26.6 °F 15.7 °F 26.6 °F 100% 29.87 in 5.0 mi NW 12.7 mph - N/A   Overcast
1:33 AM 26.6 °F 16.2 °F 26.6 °F 100% 29.87 in 4.0 mi NW 11.5 mph - N/A   Overcast
1:52 AM 26.6 °F 15.7 °F 26.6 °F 100% 29.87 in 5.0 mi NW 12.7 mph - N/A Snow Light Snow
2:13 AM 26.6 °F 16.2 °F 26.6 °F 100% 29.87 in 5.0 mi NW 11.5 mph - N/A Snow Light Snow
2:33 AM 26.6 °F 16.8 °F 26.6 °F 100% 29.87 in 7.0 mi NW 10.4 mph - N/A   Overcast
2:52 AM 26.6 °F 16.8 °F 26.6 °F 100% 29.86 in 7.0 mi NNW 10.4 mph - N/A   Overcast
3:13 AM 26.6 °F 16.8 °F 26.6 °F 100% 29.86 in 10.0 mi NNW 10.4 mph - N/A   Overcast
3:33 AM 26.6 °F 18.2 °F 26.6 °F 100% 29.85 in 10.0 mi North 8.1 mph - N/A   Overcast
3:52 AM 26.6 °F 17.5 °F 26.6 °F 100% 29.85 in 7.0 mi NNW 9.2 mph - N/A   Overcast
4:13 AM 26.6 °F 18.2 °F 26.6 °F 100% 29.85 in 7.0 mi NNW 8.1 mph - N/A   Overcast
4:33 AM 26.6 °F 17.5 °F 26.6 °F 100% 29.85 in 10.0 mi NNW 9.2 mph - N/A   Overcast
4:52 AM 26.6 °F 16.8 °F 26.6 °F 100% 29.85 in 10.0 mi NNW 10.4 mph - N/A   Overcast
5:13 AM 26.6 °F 17.5 °F 26.6 °F 100% 29.85 in 7.0 mi NW 9.2 mph - N/A   Overcast
5:33 AM 26.6 °F 17.5 °F 26.6 °F 100% 29.85 in 7.0 mi NW 9.2 mph - N/A   Overcast
5:52 AM 26.6 °F 17.5 °F 26.6 °F 100% 29.86 in 5.0 mi NW 9.2 mph - N/A   Overcast
6:13 AM 26.6 °F 17.5 °F 26.6 °F 100% 29.86 in 5.0 mi NW 9.2 mph - N/A   Overcast
6:33 AM 26.6 °F 17.5 °F 26.6 °F 100% 29.86 in 7.0 mi NW 9.2 mph - N/A   Overcast
6:53 AM 26.6 °F 16.8 °F 26.6 °F 100% 29.87 in 10.0 mi NW 10.4 mph - N/A   Overcast
7:13 AM 26.6 °F 16.8 °F 26.6 °F 100% 29.87 in 7.0 mi NW 10.4 mph - N/A   Overcast
7:33 AM 26.6 °F 16.8 °F 26.6 °F 100% 29.87 in 10.0 mi NW 10.4 mph - N/A   Overcast
7:53 AM 26.6 °F 18.2 °F 26.6 °F 100% 29.87 in 10.0 mi NNW 8.1 mph - N/A   Overcast
8:13 AM 26.6 °F 17.5 °F 26.6 °F 100% 29.88 in 10.0 mi NNW 9.2 mph - N/A   Overcast
8:33 AM 26.6 °F 18.2 °F 24.8 °F 93% 29.87 in 10.0 mi NNW 8.1 mph - N/A   Overcast
8:53 AM 26.6 °F 17.5 °F 24.8 °F 93% 29.88 in 10.0 mi NNW 9.2 mph - N/A   Overcast
9:13 AM 26.6 °F 16.2 °F 23.0 °F 86% 29.88 in 10.0 mi North 11.5 mph - N/A   Overcast
9:33 AM 26.6 °F 16.2 °F 24.8 °F 93% 29.88 in 10.0 mi NW 11.5 mph - N/A   Overcast
9:53 AM 26.6 °F 17.5 °F 23.0 °F 86% 29.88 in 10.0 mi North 9.2 mph - N/A   Overcast
10:13 AM 26.6 °F 17.5 °F 24.8 °F 93% 29.88 in 10.0 mi NW 9.2 mph - N/A   Overcast
10:33 AM 26.6 °F 17.5 °F 24.8 °F 93% 29.88 in 10.0 mi NW 9.2 mph - N/A   Overcast
10:53 AM 28.4 °F 20.4 °F 23.0 °F 80% 29.89 in 10.0 mi NW 8.1 mph - N/A   Overcast
11:13 AM 28.4 °F 20.4 °F 23.0 °F 80% 29.89 in 10.0 mi NW 8.1 mph - N/A   Overcast
11:33 AM 28.4 °F 22.2 °F 24.8 °F 86% 29.89 in 10.0 mi NNW 5.8 mph - N/A   Overcast
11:53 AM 28.4 °F 23.3 °F 23.0 °F 80% 29.89 in 10.0 mi NNW 4.6 mph - N/A   Mostly Cloudy
12:13 PM 30.2 °F 24.3 °F 24.8 °F 80% 29.89 in 10.0 mi NW 5.8 mph - N/A   Mostly Cloudy
12:33 PM 30.2 °F 24.3 °F 24.8 °F 80% 29.89 in 10.0 mi NW 5.8 mph - N/A   Scattered Clouds
12:53 PM 30.2 °F 24.3 °F 24.8 °F 80% 29.89 in 10.0 mi WNW 5.8 mph - N/A   Scattered Clouds
1:13 PM 30.2 °F 24.3 °F 24.8 °F 80% 29.88 in 10.0 mi WNW 5.8 mph - N/A   Scattered Clouds
1:33 PM 32.0 °F 24.8 °F 24.8 °F 75% 29.88 in 10.0 mi NW 8.1 mph - N/A   Clear
1:53 PM 32.0 °F 24.8 °F 24.8 °F 75% 29.88 in 10.0 mi NW 8.1 mph - N/A   Scattered Clouds
2:13 PM 32.0 °F 26.4 °F 23.0 °F 69% 29.88 in 10.0 mi West 5.8 mph - N/A   Clear
2:33 PM 33.8 °F 28.6 °F 24.8 °F 70% 29.87 in 10.0 mi WNW 5.8 mph - N/A   Scattered Clouds
2:53 PM 33.8 °F 27.7 °F 24.8 °F 70% 29.87 in 10.0 mi WNW 6.9 mph - N/A   Scattered Clouds
3:13 PM 33.8 °F 27.0 °F 24.8 °F 70% 29.87 in 10.0 mi NW 8.1 mph - N/A   Scattered Clouds
3:32 PM 33.8 °F 28.6 °F 24.8 °F 70% 29.87 in 10.0 mi NNW 5.8 mph - N/A   Scattered Clouds
3:53 PM 33.8 °F 27.7 °F 24.8 °F 70% 29.87 in 10.0 mi NW 6.9 mph - N/A   Clear
4:13 PM 33.8 °F 28.6 °F 24.8 °F 70% 29.86 in 10.0 mi NNW 5.8 mph - N/A   Scattered Clouds
4:32 PM 33.8 °F 28.6 °F 23.0 °F 65% 29.86 in 10.0 mi NNW 5.8 mph - N/A   Mostly Cloudy
4:53 PM 33.8 °F 29.6 °F 23.0 °F 65% 29.86 in 10.0 mi North 4.6 mph - N/A   Overcast
5:13 PM 33.8 °F 30.8 °F 23.0 °F 65% 29.86 in 10.0 mi North 3.5 mph - N/A   Overcast
5:32 PM 33.8 °F 29.6 °F 21.2 °F 60% 29.86 in 10.0 mi SE 4.6 mph - N/A   Overcast
5:53 PM 33.8 °F 27.0 °F 19.4 °F 56% 29.86 in 10.0 mi ENE 8.1 mph - N/A   Overcast
6:13 PM 33.8 °F 28.6 °F 19.4 °F 56% 29.85 in 10.0 mi ENE 5.8 mph - N/A   Scattered Clouds
6:32 PM 33.8 °F 29.6 °F 19.4 °F 56% 29.85 in 10.0 mi East 4.6 mph - N/A   Clear
6:53 PM 33.8 °F 27.0 °F 17.6 °F 52% 29.85 in 10.0 mi ENE 8.1 mph - N/A   Clear
7:13 PM 33.8 °F 27.0 °F 17.6 °F 52% 29.85 in 10.0 mi ESE 8.1 mph - N/A   Clear
7:32 PM 33.8 °F 27.7 °F 17.6 °F 52% 29.86 in 10.0 mi SE 6.9 mph - N/A   Clear
7:53 PM 33.8 °F 28.6 °F 19.4 °F 56% 29.87 in 10.0 mi SE 5.8 mph - N/A   Clear
8:13 PM 32.0 °F 28.7 °F 19.4 °F 60% 29.87 in 10.0 mi SE 3.5 mph - N/A   Clear
8:33 PM 30.2 °F 26.7 °F 21.2 °F 69% 29.87 in 10.0 mi SE 3.5 mph - N/A   Clear
8:53 PM 30.2 °F 26.7 °F 21.2 °F 69% 29.88 in 10.0 mi SSE 3.5 mph - N/A   Clear
9:13 PM 30.2 °F 26.7 °F 21.2 °F 69% 29.90 in 10.0 mi SSE 3.5 mph - N/A   Clear
9:53 PM 30.2 °F 25.4 °F 21.2 °F 69% 29.90 in 10.0 mi ESE 4.6 mph - N/A   Clear
10:13 PM 28.4 °F - 21.2 °F 74% 29.90 in 10.0 mi Calm Calm - N/A   Clear
10:33 PM 28.4 °F 24.6 °F 21.2 °F 74% 29.90 in 10.0 mi East 3.5 mph - N/A   Clear
10:53 PM 28.4 °F 23.3 °F 19.4 °F 69% 29.90 in 10.0 mi ESE 4.6 mph - N/A   Clear
11:13 PM 28.4 °F 22.2 °F 19.4 °F 69% 29.90 in 10.0 mi ESE 5.8 mph - N/A   Clear
11:33 PM 28.4 °F 23.3 °F 19.4 °F 69% 29.90 in 10.0 mi East 4.6 mph - N/A   Clear
11:53 PM 28.4 °F 24.6 °F 19.4 °F 69% 29.89 in 10.0 mi East 3.5 mph - N/A   Clear